createdAt,value
2023-01-09T00:00:47.234Z,10.80
2023-01-09T00:03:14.057Z,10.90
2023-01-09T00:05:40.919Z,10.90
2023-01-09T00:08:08.180Z,12.30
2023-01-09T00:10:34.931Z,11.90
2023-01-09T00:13:12.176Z,12.00
2023-01-09T00:15:43.001Z,12.30
2023-01-09T00:18:09.950Z,11.20
2023-01-09T00:20:36.741Z,11.70
2023-01-09T00:23:03.986Z,11.60
2023-01-09T00:25:30.784Z,11.70
2023-01-09T00:27:57.473Z,13.00
2023-01-09T00:30:24.340Z,12.20
2023-01-09T00:32:51.005Z,11.10
2023-01-09T00:35:18.716Z,11.60
2023-01-09T00:37:45.697Z,11.30
2023-01-09T00:40:14.325Z,13.10
2023-01-09T00:42:43.375Z,11.90
2023-01-09T00:45:16.208Z,12.80
2023-01-09T00:47:48.121Z,11.20
2023-01-09T00:50:24.943Z,11.30
2023-01-09T00:52:55.180Z,10.80
2023-01-09T00:55:21.952Z,11.60
2023-01-09T00:57:49.096Z,11.80
2023-01-09T01:00:16.407Z,10.50
2023-01-09T01:02:43.237Z,10.60
2023-01-09T01:05:28.666Z,10.60
2023-01-09T01:07:55.366Z,9.10
2023-01-09T01:10:26.170Z,9.50
2023-01-09T01:12:53.800Z,10.30
2023-01-09T01:15:21.142Z,9.80
2023-01-09T01:17:48.031Z,9.70
2023-01-09T01:20:19.066Z,8.70
2023-01-09T01:22:45.949Z,9.80
2023-01-09T01:25:15.074Z,11.10
2023-01-09T01:27:41.900Z,9.00
2023-01-09T01:30:10.824Z,9.10
2023-01-09T01:32:37.948Z,9.40
2023-01-09T01:35:05.425Z,8.80
2023-01-09T01:37:33.370Z,8.30
2023-01-09T01:40:00.204Z,7.90
2023-01-09T01:42:27.060Z,8.00
2023-01-09T01:45:00.360Z,7.60
2023-01-09T01:47:44.303Z,7.70
2023-01-09T01:50:22.331Z,8.10
2023-01-09T01:52:55.467Z,8.80
2023-01-09T01:55:23.072Z,8.80
2023-01-09T01:57:52.354Z,8.40
2023-01-09T02:00:22.824Z,7.80
2023-01-09T02:02:49.534Z,8.20
2023-01-09T02:05:16.363Z,10.90
2023-01-09T02:07:43.029Z,10.80
2023-01-09T02:10:10.991Z,11.10
2023-01-09T02:12:37.710Z,11.80
2023-01-09T02:15:09.054Z,11.50
2023-01-09T02:18:11.471Z,11.30
2023-01-09T02:20:50.613Z,11.70
2023-01-09T02:23:35.928Z,11.70
2023-01-09T02:26:36.860Z,11.70
2023-01-09T02:29:37.727Z,11.40
2023-01-09T02:32:27.012Z,11.70
2023-01-09T02:35:02.762Z,12.60
2023-01-09T02:37:45.416Z,10.80
2023-01-09T02:40:27.867Z,11.50
2023-01-09T02:42:57.377Z,11.60
2023-01-09T02:45:24.259Z,12.00
2023-01-09T02:47:50.974Z,12.10
2023-01-09T02:50:22.323Z,12.10
2023-01-09T02:52:56.745Z,12.00
2023-01-09T02:55:32.709Z,11.50
2023-01-09T02:58:27.499Z,12.20
2023-01-09T03:01:19.510Z,11.80
2023-01-09T03:03:49.534Z,11.70
2023-01-09T03:06:20.906Z,11.50
2023-01-09T03:08:55.474Z,11.60
2023-01-09T03:11:22.580Z,12.00
2023-01-09T03:13:55.721Z,12.40
2023-01-09T03:16:30.679Z,12.40
2023-01-09T03:18:59.329Z,12.20
2023-01-09T03:21:27.663Z,13.40
2023-01-09T03:23:58.588Z,12.60
2023-01-09T03:26:26.468Z,11.80
2023-01-09T03:28:53.266Z,12.50
2023-01-09T03:31:20.053Z,11.80
2023-01-09T03:33:46.903Z,11.00
2023-01-09T03:36:15.944Z,11.10
2023-01-09T03:38:42.724Z,11.50
2023-01-09T03:41:10.505Z,11.60
2023-01-09T03:43:37.755Z,12.40
2023-01-09T03:46:05.303Z,11.50
2023-01-09T03:48:49.161Z,11.60
2023-01-09T03:51:15.826Z,12.00
2023-01-09T03:53:42.544Z,11.10
2023-01-09T03:56:10.300Z,11.90
2023-01-09T03:58:37.054Z,12.20
2023-01-09T04:01:05.802Z,12.00
2023-01-09T04:03:32.670Z,11.50
2023-01-09T04:05:59.452Z,11.50
2023-01-09T04:08:26.101Z,11.80
2023-01-09T04:10:52.823Z,12.30
2023-01-09T04:13:19.891Z,11.50
2023-01-09T04:15:46.571Z,11.70
2023-01-09T04:18:13.598Z,12.50
2023-01-09T04:20:40.857Z,12.40
2023-01-09T04:23:07.772Z,11.80
2023-01-09T04:25:34.838Z,11.30
2023-01-09T04:28:01.608Z,12.10
2023-01-09T04:30:28.463Z,11.70
2023-01-09T04:32:55.197Z,11.20
2023-01-09T04:35:22.085Z,11.30
2023-01-09T04:37:48.892Z,11.30
2023-01-09T04:40:15.667Z,11.10
2023-01-09T04:42:42.503Z,10.60
2023-01-09T04:45:11.119Z,10.40
2023-01-09T04:47:37.966Z,10.50
2023-01-09T04:50:05.350Z,10.80
2023-01-09T04:52:33.079Z,11.90
2023-01-09T04:54:59.928Z,11.90
2023-01-09T04:57:26.758Z,11.60
2023-01-09T04:59:54.227Z,11.40
2023-01-09T05:02:21.255Z,11.30
2023-01-09T05:04:48.167Z,10.20
2023-01-09T05:07:14.853Z,10.20
2023-01-09T05:09:41.942Z,11.60
2023-01-09T05:12:08.739Z,11.10
2023-01-09T05:14:35.413Z,12.00
2023-01-09T05:17:02.270Z,10.90
2023-01-09T05:19:29.043Z,10.70
2023-01-09T05:21:55.717Z,10.60
2023-01-09T05:24:22.369Z,11.10
2023-01-09T05:26:49.195Z,10.80
2023-01-09T05:29:15.960Z,10.90
2023-01-09T05:31:42.811Z,10.60
2023-01-09T05:34:09.565Z,10.50
2023-01-09T05:36:36.221Z,11.00
2023-01-09T05:39:03.541Z,10.20
2023-01-09T05:41:30.400Z,10.20
2023-01-09T05:43:57.125Z,9.80
2023-01-09T05:46:23.762Z,10.80
2023-01-09T05:48:50.495Z,10.00
2023-01-09T05:51:17.421Z,10.20
2023-01-09T05:53:44.132Z,9.80
2023-01-09T05:56:11.812Z,10.10
2023-01-09T05:58:39.120Z,11.00
2023-01-09T06:01:06.139Z,10.10
2023-01-09T06:03:34.312Z,10.10
2023-01-09T06:06:00.986Z,8.90
2023-01-09T06:08:27.742Z,7.70
2023-01-09T06:10:54.528Z,7.90
2023-01-09T06:13:21.356Z,8.30
2023-01-09T06:15:48.549Z,7.70
2023-01-09T06:18:15.395Z,7.70
2023-01-09T06:20:42.120Z,7.80
2023-01-09T06:23:08.904Z,7.00
2023-01-09T06:25:35.623Z,7.00
2023-01-09T06:28:02.306Z,7.10
2023-01-09T06:30:30.361Z,7.20
2023-01-09T06:32:57.033Z,7.50
2023-01-09T06:35:23.846Z,7.50
2023-01-09T06:37:50.815Z,7.50
2023-01-09T06:40:18.586Z,7.60
2023-01-09T06:42:49.828Z,7.30
2023-01-09T06:45:16.792Z,7.40
2023-01-09T06:47:43.532Z,7.50
2023-01-09T06:50:12.091Z,8.30
2023-01-09T06:52:39.821Z,7.80
2023-01-09T06:55:07.611Z,8.00
2023-01-09T06:57:34.329Z,7.70
2023-01-09T07:00:01.176Z,7.90
2023-01-09T07:02:27.891Z,9.30
2023-01-09T07:04:54.533Z,8.80
2023-01-09T07:07:22.464Z,8.00
2023-01-09T07:09:49.737Z,7.60
2023-01-09T07:12:16.526Z,10.20
2023-01-09T07:14:49.285Z,10.20
2023-01-09T07:17:26.156Z,8.20
2023-01-09T07:19:52.960Z,8.40
2023-01-09T07:22:20.679Z,8.60
2023-01-09T07:24:47.647Z,10.20
2023-01-09T07:27:14.421Z,10.20
2023-01-09T07:29:41.090Z,8.90
2023-01-09T07:32:07.886Z,9.50
2023-01-09T07:34:34.546Z,9.70
2023-01-09T07:37:01.296Z,9.20
2023-01-09T07:39:28.097Z,9.30
2023-01-09T07:41:56.224Z,9.70
2023-01-09T07:44:23.487Z,9.00
2023-01-09T07:46:50.318Z,8.60
2023-01-09T07:49:16.957Z,7.90
2023-01-09T07:51:44.988Z,9.90
2023-01-09T07:54:13.479Z,9.50
2023-01-09T07:56:40.763Z,10.40
2023-01-09T07:59:07.487Z,10.90
2023-01-09T08:01:34.308Z,10.50
2023-01-09T08:04:01.032Z,11.70
2023-01-09T08:06:27.894Z,11.80
2023-01-09T08:08:54.602Z,10.20
2023-01-09T08:11:21.587Z,10.10
2023-01-09T08:13:48.228Z,10.40
2023-01-09T08:16:15.220Z,9.40
2023-01-09T08:18:42.327Z,9.10
2023-01-09T08:21:11.202Z,9.40
2023-01-09T08:23:38.153Z,10.90
2023-01-09T08:26:05.795Z,11.10
2023-01-09T08:28:33.563Z,10.40
2023-01-09T08:31:00.293Z,10.90
2023-01-09T08:33:27.324Z,11.00
2023-01-09T08:35:54.598Z,10.50
2023-01-09T08:38:22.354Z,9.90
2023-01-09T08:40:49.242Z,10.80
2023-01-09T08:43:36.420Z,10.70
2023-01-09T08:46:22.108Z,10.70
2023-01-09T08:48:48.925Z,11.10
2023-01-09T08:51:15.870Z,11.70
2023-01-09T08:53:42.638Z,12.50
2023-01-09T08:56:11.449Z,11.90
2023-01-09T08:58:42.329Z,11.20
2023-01-09T09:01:09.198Z,10.90
2023-01-09T09:03:35.986Z,10.90
2023-01-09T09:06:03.145Z,10.80
2023-01-09T09:08:30.925Z,11.10
2023-01-09T09:10:57.667Z,11.70
2023-01-09T09:13:24.425Z,11.50
2023-01-09T09:15:51.283Z,11.30
2023-01-09T09:18:18.033Z,11.50
2023-01-09T09:20:44.789Z,11.80
2023-01-09T09:23:11.671Z,12.30
2023-01-09T09:25:38.695Z,12.50
2023-01-09T09:28:06.790Z,13.20
2023-01-09T09:30:33.972Z,13.40
2023-01-09T09:33:04.601Z,12.50
2023-01-09T09:35:33.693Z,12.60
2023-01-09T09:38:05.034Z,11.80
2023-01-09T09:41:36.099Z,12.70
2023-01-09T09:44:34.272Z,12.20
2023-01-09T09:47:13.528Z,12.50
2023-01-09T09:50:25.540Z,12.60
2023-01-09T09:52:59.367Z,14.20
2023-01-09T09:55:34.744Z,13.20
2023-01-09T09:58:07.654Z,12.80
2023-01-09T10:00:34.528Z,12.90
2023-01-09T10:03:03.478Z,11.50
2023-01-09T10:05:46.207Z,11.70
2023-01-09T10:08:45.643Z,11.30
2023-01-09T10:11:27.479Z,11.30
2023-01-09T10:14:08.499Z,11.00
2023-01-09T10:17:04.393Z,12.80
2023-01-09T10:19:49.338Z,13.00
2023-01-09T10:22:29.732Z,12.00
2023-01-09T10:25:02.482Z,12.10
2023-01-09T10:27:50.704Z,11.80
2023-01-09T10:30:55.247Z,12.90
2023-01-09T10:33:53.998Z,13.10
2023-01-09T10:36:49.052Z,11.90
2023-01-09T10:39:23.918Z,11.90
2023-01-09T10:42:08.189Z,11.60
2023-01-09T10:44:42.680Z,12.20
2023-01-09T10:47:17.707Z,11.00
2023-01-09T10:49:47.230Z,11.10
2023-01-09T10:52:18.069Z,11.40
2023-01-09T10:54:55.216Z,11.60
2023-01-09T10:57:41.827Z,11.60
2023-01-09T11:00:18.775Z,12.00
2023-01-09T11:02:46.400Z,12.90
2023-01-09T11:05:21.387Z,12.40
2023-01-09T11:07:56.909Z,12.20
2023-01-09T11:10:23.685Z,11.90
2023-01-09T11:12:50.381Z,12.00
2023-01-09T11:15:17.129Z,11.70
2023-01-09T11:17:44.356Z,12.10
2023-01-09T11:20:29.379Z,12.20
2023-01-09T11:22:57.785Z,12.80
2023-01-09T11:25:28.974Z,12.60
2023-01-09T11:28:01.756Z,12.80
2023-01-09T11:30:34.158Z,12.30
2023-01-09T11:33:01.079Z,12.40
2023-01-09T11:35:34.745Z,12.40
2023-01-09T11:38:06.826Z,12.50
2023-01-09T11:40:54.617Z,12.50
2023-01-09T11:43:30.744Z,12.20
2023-01-09T11:46:06.377Z,12.30
2023-01-09T11:48:54.918Z,12.30
2023-01-09T11:51:30.604Z,12.40
2023-01-09T11:54:12.060Z,12.50
2023-01-09T11:56:39.449Z,12.10
2023-01-09T11:59:30.654Z,12.80
2023-01-09T12:02:24.816Z,14.20
2023-01-09T12:04:59.237Z,13.30
2023-01-09T12:07:58.777Z,12.80
2023-01-09T12:11:00.426Z,13.10
2023-01-09T12:14:10.191Z,13.30
2023-01-09T12:17:00.396Z,12.80
2023-01-09T12:19:51.838Z,12.70
2023-01-09T12:22:44.390Z,13.60
2023-01-09T12:25:32.339Z,13.40
2023-01-09T12:28:11.373Z,11.80
2023-01-09T12:31:09.221Z,11.30
2023-01-09T12:33:54.740Z,11.80
2023-01-09T12:37:11.588Z,12.20
2023-01-09T12:40:17.053Z,11.90
2023-01-09T12:43:06.292Z,11.90
2023-01-09T12:46:00.218Z,12.40
2023-01-09T12:48:42.333Z,12.10
2023-01-09T12:51:14.064Z,12.10
2023-01-09T12:53:52.285Z,11.80
2023-01-09T12:56:25.160Z,12.00
2023-01-09T12:58:56.865Z,11.10
2023-01-09T13:01:38.717Z,12.00
2023-01-09T13:04:24.215Z,11.70
2023-01-09T13:06:57.945Z,11.90
2023-01-09T13:09:48.747Z,12.00
2023-01-09T13:12:21.872Z,12.40
2023-01-09T13:15:14.139Z,12.70
2023-01-09T13:17:48.910Z,12.40
2023-01-09T13:20:23.277Z,13.60
2023-01-09T13:22:52.432Z,13.20
2023-01-09T13:25:35.051Z,12.10
2023-01-09T13:28:08.665Z,13.30
2023-01-09T13:30:42.243Z,13.00
2023-01-09T13:33:27.780Z,13.10
2023-01-09T13:35:57.554Z,12.90
2023-01-09T13:38:27.482Z,13.30
2023-01-09T13:41:33.937Z,13.40
2023-01-09T13:44:19.229Z,13.40
2023-01-09T13:46:48.308Z,13.10
2023-01-09T13:49:53.054Z,13.10
2023-01-09T13:52:49.619Z,13.50
2023-01-09T13:55:16.533Z,14.00
2023-01-09T13:58:03.303Z,13.30
2023-01-09T14:00:36.151Z,12.80
2023-01-09T14:03:08.467Z,13.30
2023-01-09T14:05:35.223Z,13.10
2023-01-09T14:08:10.563Z,12.70
2023-01-09T14:10:46.066Z,12.10
2023-01-09T14:13:22.872Z,13.00
2023-01-09T14:15:51.527Z,13.90
2023-01-09T14:18:29.384Z,12.90
2023-01-09T14:21:01.123Z,13.20
2023-01-09T14:23:50.315Z,13.30
2023-01-09T14:26:19.762Z,13.20
2023-01-09T14:28:46.628Z,12.90
2023-01-09T14:31:31.135Z,12.70
2023-01-09T14:34:31.897Z,12.60
2023-01-09T14:37:01.391Z,12.50
2023-01-09T14:39:32.006Z,12.70
2023-01-09T14:42:09.407Z,12.30
2023-01-09T14:44:44.803Z,13.40
2023-01-09T14:47:41.752Z,12.70
2023-01-09T14:50:44.942Z,12.90
2023-01-09T14:53:16.728Z,12.40
2023-01-09T14:55:59.283Z,12.60
2023-01-09T14:58:31.343Z,13.20
2023-01-09T15:01:15.365Z,13.00
2023-01-09T15:03:58.813Z,12.80
2023-01-09T15:06:37.746Z,13.20
2023-01-09T15:09:23.651Z,12.90
2023-01-09T15:11:52.159Z,12.20
2023-01-09T15:14:33.936Z,12.30
2023-01-09T15:17:01.823Z,11.80
2023-01-09T15:19:30.450Z,11.90
2023-01-09T15:22:05.790Z,11.90
2023-01-09T15:24:36.734Z,12.10
2023-01-09T15:27:22.043Z,12.20
2023-01-09T15:29:53.231Z,12.40
2023-01-09T15:32:26.623Z,11.90
2023-01-09T15:34:55.241Z,12.10
2023-01-09T15:37:38.043Z,12.40
2023-01-09T15:40:07.987Z,12.30
2023-01-09T15:42:58.421Z,12.30
2023-01-09T15:45:33.732Z,12.40
2023-01-09T15:48:23.042Z,12.80
2023-01-09T15:51:13.541Z,12.60
2023-01-09T15:53:40.929Z,12.60
2023-01-09T15:56:19.648Z,12.30
2023-01-09T15:58:55.493Z,12.00
2023-01-09T16:01:25.026Z,12.20
2023-01-09T16:03:54.955Z,12.60
2023-01-09T16:06:30.336Z,12.10
2023-01-09T16:08:59.512Z,12.50
2023-01-09T16:11:27.812Z,12.70
2023-01-09T16:13:56.862Z,12.60
2023-01-09T16:16:28.647Z,12.60
2023-01-09T16:18:56.532Z,12.40
2023-01-09T16:21:38.611Z,12.20
2023-01-09T16:24:14.363Z,12.00
2023-01-09T16:26:43.135Z,11.50
2023-01-09T16:29:38.157Z,10.90
2023-01-09T16:32:06.797Z,9.70
2023-01-09T16:34:35.296Z,9.00
2023-01-09T16:37:04.475Z,8.80
2023-01-09T16:39:31.419Z,8.70
2023-01-09T16:42:16.980Z,8.40
2023-01-09T16:44:43.684Z,9.00
2023-01-09T16:47:12.256Z,9.20
2023-01-09T16:49:39.060Z,8.70
2023-01-09T16:52:18.011Z,8.70
2023-01-09T16:54:46.915Z,8.50
2023-01-09T16:57:18.726Z,9.30
2023-01-09T16:59:48.757Z,9.00
2023-01-09T17:02:20.129Z,9.20
2023-01-09T17:04:47.878Z,9.30
2023-01-09T17:07:16.352Z,9.00
2023-01-09T17:09:43.739Z,10.00
2023-01-09T17:12:24.836Z,12.90
2023-01-09T17:14:51.667Z,10.80
2023-01-09T17:17:21.548Z,11.20
2023-01-09T17:19:48.303Z,10.20
2023-01-09T17:22:17.452Z,9.50
2023-01-09T17:25:02.858Z,10.30
2023-01-09T17:27:55.809Z,11.00
2023-01-09T17:30:22.904Z,8.40
2023-01-09T17:32:49.660Z,7.80
2023-01-09T17:35:16.762Z,7.90
2023-01-09T17:37:43.548Z,9.60
2023-01-09T17:40:22.470Z,10.10
2023-01-09T17:42:49.482Z,10.40
2023-01-09T17:45:16.281Z,10.80
2023-01-09T17:47:42.986Z,10.80
2023-01-09T17:50:20.377Z,10.90
2023-01-09T17:52:48.379Z,10.60
2023-01-09T17:55:15.284Z,10.80
2023-01-09T17:57:44.953Z,10.80
2023-01-09T18:00:26.716Z,11.00
2023-01-09T18:02:54.726Z,10.60
2023-01-09T18:05:22.761Z,11.30
2023-01-09T18:07:49.845Z,11.10
2023-01-09T18:10:19.122Z,11.30
2023-01-09T18:12:50.262Z,10.90
2023-01-09T18:15:17.063Z,10.60
2023-01-09T18:17:43.985Z,11.20
2023-01-09T18:20:11.336Z,10.50
2023-01-09T18:22:38.133Z,10.40
2023-01-09T18:25:05.351Z,10.80
2023-01-09T18:27:32.329Z,10.20
2023-01-09T18:30:05.693Z,10.20
2023-01-09T18:32:33.095Z,9.60
2023-01-09T18:35:09.939Z,9.40
2023-01-09T18:38:03.302Z,9.60
2023-01-09T18:40:33.031Z,10.10
2023-01-09T18:43:04.919Z,10.20
2023-01-09T18:45:32.859Z,10.70
2023-01-09T18:47:59.818Z,10.00
2023-01-09T18:50:26.622Z,9.70
2023-01-09T18:52:55.323Z,9.60
2023-01-09T18:55:22.151Z,9.40
2023-01-09T18:57:52.308Z,9.70
2023-01-09T19:00:19.826Z,9.90
2023-01-09T19:02:46.553Z,9.70
2023-01-09T19:05:14.437Z,9.70
2023-01-09T19:07:41.279Z,9.40
2023-01-09T19:10:09.200Z,9.40
2023-01-09T19:12:35.875Z,10.30
2023-01-09T19:15:02.659Z,10.20
2023-01-09T19:17:29.398Z,9.60
2023-01-09T19:19:56.097Z,9.90
2023-01-09T19:22:22.973Z,9.60
2023-01-09T19:24:49.706Z,9.30
2023-01-09T19:27:17.001Z,9.40
2023-01-09T19:29:43.687Z,9.80
2023-01-09T19:32:13.800Z,9.60
2023-01-09T19:34:40.631Z,9.30
2023-01-09T19:37:09.453Z,9.10
2023-01-09T19:39:37.623Z,9.40
2023-01-09T19:42:04.404Z,9.40
2023-01-09T19:44:33.894Z,9.60
2023-01-09T19:47:00.682Z,9.40
2023-01-09T19:49:27.346Z,9.40
2023-01-09T19:51:55.814Z,9.60
2023-01-09T19:54:22.733Z,9.10
2023-01-09T19:56:49.433Z,9.50
2023-01-09T19:59:16.271Z,9.50
2023-01-09T20:01:43.531Z,9.60
2023-01-09T20:04:15.831Z,9.30
2023-01-09T20:06:48.421Z,9.00
2023-01-09T20:09:17.629Z,9.70
2023-01-09T20:11:45.356Z,9.80
2023-01-09T20:14:18.655Z,9.50
2023-01-09T20:16:54.013Z,9.40
2023-01-09T20:19:20.911Z,10.00
2023-01-09T20:21:49.593Z,10.30
2023-01-09T20:24:17.423Z,10.30
2023-01-09T20:26:46.212Z,11.00
2023-01-09T20:29:13.047Z,10.70
2023-01-09T20:31:41.838Z,11.40
2023-01-09T20:34:11.977Z,11.10
2023-01-09T20:36:40.284Z,10.90
2023-01-09T20:39:08.150Z,11.40
2023-01-09T20:41:34.938Z,10.60
2023-01-09T20:44:05.771Z,10.40
2023-01-09T20:46:36.827Z,10.40
2023-01-09T20:49:06.811Z,10.50
2023-01-09T20:51:40.597Z,10.60
2023-01-09T20:54:08.684Z,10.70
2023-01-09T20:56:36.243Z,10.70
2023-01-09T20:59:14.150Z,11.40
2023-01-09T21:01:41.456Z,11.40
2023-01-09T21:04:09.028Z,11.50
2023-01-09T21:06:37.278Z,11.50
2023-01-09T21:09:05.153Z,11.30
2023-01-09T21:11:33.932Z,11.40
2023-01-09T21:14:00.712Z,11.50
2023-01-09T21:16:29.436Z,11.20
2023-01-09T21:18:56.319Z,11.30
2023-01-09T21:21:25.244Z,10.80
2023-01-09T21:23:55.264Z,11.00
2023-01-09T21:26:26.581Z,10.90
2023-01-09T21:28:57.392Z,10.80
2023-01-09T21:31:34.105Z,9.00
2023-01-09T21:34:07.355Z,8.10
2023-01-09T21:36:35.375Z,7.80
2023-01-09T21:39:04.073Z,7.50
2023-01-09T21:41:50.406Z,7.20
2023-01-09T21:44:35.989Z,7.40
2023-01-09T21:47:03.049Z,7.30
2023-01-09T21:49:34.727Z,7.70
2023-01-09T21:52:15.655Z,7.40
2023-01-09T21:54:49.153Z,7.40
2023-01-09T21:57:17.136Z,7.10
2023-01-09T21:59:44.950Z,7.10
2023-01-09T22:02:15.772Z,7.80
2023-01-09T22:04:48.257Z,7.30
2023-01-09T22:07:16.141Z,7.00
2023-01-09T22:09:44.453Z,7.10
2023-01-09T22:12:12.272Z,6.90
2023-01-09T22:14:39.743Z,7.00
2023-01-09T22:17:09.641Z,7.10
2023-01-09T22:19:36.310Z,7.10
2023-01-09T22:22:03.700Z,7.00
2023-01-09T22:24:30.475Z,6.90
2023-01-09T22:26:57.432Z,6.80
2023-01-09T22:29:24.271Z,6.90
2023-01-09T22:31:50.971Z,7.10
2023-01-09T22:34:18.697Z,7.60
2023-01-09T22:36:46.442Z,7.40
2023-01-09T22:39:15.648Z,7.20
2023-01-09T22:41:42.775Z,7.20
2023-01-09T22:44:12.653Z,7.10
2023-01-09T22:46:39.445Z,7.20
2023-01-09T22:49:06.310Z,7.50
2023-01-09T22:51:33.742Z,7.70
2023-01-09T22:54:01.077Z,7.50
2023-01-09T22:56:28.438Z,7.40
2023-01-09T22:59:00.838Z,7.20
2023-01-09T23:01:27.950Z,7.20
2023-01-09T23:03:54.672Z,7.30
2023-01-09T23:06:22.855Z,7.20
2023-01-09T23:08:51.092Z,7.30
2023-01-09T23:11:43.044Z,7.20
2023-01-09T23:14:10.833Z,7.50
2023-01-09T23:16:37.835Z,7.30
2023-01-09T23:19:17.155Z,7.00
2023-01-09T23:21:45.546Z,6.90
2023-01-09T23:24:14.057Z,6.70
2023-01-09T23:26:40.912Z,6.90
2023-01-09T23:29:08.982Z,7.20
2023-01-09T23:31:36.491Z,7.60
2023-01-09T23:34:08.239Z,7.80
2023-01-09T23:36:35.727Z,7.40
2023-01-09T23:39:18.151Z,7.70
2023-01-09T23:42:03.358Z,7.50
2023-01-09T23:44:30.405Z,7.70
2023-01-09T23:46:57.460Z,7.40
2023-01-09T23:49:24.382Z,7.50
2023-01-09T23:51:51.326Z,7.30
2023-01-09T23:54:18.551Z,7.40
2023-01-09T23:56:45.297Z,7.00
2023-01-09T23:59:14.582Z,7.10
